sensor_id;sensor_type;location;lat;lon;timestamp;pressure;altitude;pressure_sealevel;temperature;humidity
7940;BME280;4015;48.888;9.226;2023-09-19T00:02:01;159904.13;;;18.54;84.72
7940;BME280;4015;48.888;9.226;2023-09-19T00:04:26;159883.56;;;18.46;85.36
7940;BME280;4015;48.888;9.226;2023-09-19T00:06:54;159877.16;;;18.44;86.47
7940;BME280;4015;48.888;9.226;2023-09-19T00:09:19;159861.75;;;18.38;86.79
7940;BME280;4015;48.888;9.226;2023-09-19T00:11:45;159869.44;;;18.41;85.92
7940;BME280;4015;48.888;9.226;2023-09-19T00:14:12;159854.03;;;18.34;86.66
7940;BME280;4015;48.888;9.226;2023-09-19T00:16:39;159852.75;;;18.34;86.96
7940;BME280;4015;48.888;9.226;2023-09-19T00:19:06;159863.03;;;18.38;86.93
7940;BME280;4015;48.888;9.226;2023-09-19T00:21:32;159861.75;;;18.38;87.86
7940;BME280;4015;48.888;9.226;2023-09-19T00:23:57;159848.91;;;18.32;87.34
7940;BME280;4015;48.888;9.226;2023-09-19T00:26:23;159845.06;;;18.31;87.57
7940;BME280;4015;48.888;9.226;2023-09-19T00:28:52;159850.19;;;18.33;87.34
7940;BME280;4015;48.888;9.226;2023-09-19T00:31:17;159857.91;;;18.36;87.50
7940;BME280;4015;48.888;9.226;2023-09-19T00:33:43;159852.75;;;18.34;87.51
7940;BME280;4015;48.888;9.226;2023-09-19T00:36:08;159838.63;;;18.28;87.95
7940;BME280;4015;48.888;9.226;2023-09-19T00:38:33;159842.53;;;18.30;87.22
7940;BME280;4015;48.888;9.226;2023-09-19T00:40:59;159820.66;;;18.21;87.93
7940;BME280;4015;48.888;9.226;2023-09-19T00:43:24;159830.97;;;18.25;87.90
7940;BME280;4015;48.888;9.226;2023-09-19T00:45:52;159821.94;;;18.22;87.47
7940;BME280;4015;48.888;9.226;2023-09-19T00:48:19;159819.38;;;18.21;87.82
7940;BME280;4015;48.888;9.226;2023-09-19T00:50:46;159846.34;;;18.31;87.04
7940;BME280;4015;48.888;9.226;2023-09-19T00:53:15;159845.06;;;18.31;87.05
7940;BME280;4015;48.888;9.226;2023-09-19T00:55:43;159832.22;;;18.26;87.72
7940;BME280;4015;48.888;9.226;2023-09-19T00:58:10;159814.28;;;18.19;87.97
7940;BME280;4015;48.888;9.226;2023-09-19T01:00:36;159825.84;;;18.23;88.14
7940;BME280;4015;48.888;9.226;2023-09-19T01:03:02;159837.34;;;18.28;87.49
7940;BME280;4015;48.888;9.226;2023-09-19T01:05:28;159828.41;;;18.24;87.72
7940;BME280;4015;48.888;9.226;2023-09-19T01:07:54;159827.13;;;18.24;88.12
7940;BME280;4015;48.888;9.226;2023-09-19T01:10:20;159851.47;;;18.33;87.25
7940;BME280;4015;48.888;9.226;2023-09-19T01:20:39;159820.66;;;18.21;88.00
7940;BME280;4015;48.888;9.226;2023-09-19T01:23:23;159845.06;;;18.31;86.90
7940;BME280;4015;48.888;9.226;2023-09-19T01:26:12;159820.66;;;18.21;87.40
7940;BME280;4015;48.888;9.226;2023-09-19T01:28:53;159811.72;;;18.18;88.48
7940;BME280;4015;48.888;9.226;2023-09-19T01:31:23;159813.00;;;18.18;87.87
7940;BME280;4015;48.888;9.226;2023-09-19T01:34:00;159809.16;;;18.17;87.50
7940;BME280;4015;48.888;9.226;2023-09-19T01:36:31;159789.88;;;18.09;87.99
7940;BME280;4015;48.888;9.226;2023-09-19T01:39:02;159789.88;;;18.09;88.96
7940;BME280;4015;48.888;9.226;2023-09-19T01:42:16;159795.03;;;18.11;89.16
7940;BME280;4015;48.888;9.226;2023-09-19T01:44:40;159800.16;;;18.13;89.03
7940;BME280;4015;48.888;9.226;2023-09-19T01:47:19;159779.63;;;18.05;88.53
7940;BME280;4015;48.888;9.226;2023-09-19T01:50:11;159768.06;;;18.00;88.57
7940;BME280;4015;48.888;9.226;2023-09-19T01:52:51;159757.78;;;17.96;88.89
7940;BME280;4015;48.888;9.226;2023-09-19T01:55:20;159755.22;;;17.95;89.56
7940;BME280;4015;48.888;9.226;2023-09-19T01:58:14;159764.25;;;17.99;88.44
7940;BME280;4015;48.888;9.226;2023-09-19T02:00:42;159747.56;;;17.92;89.08
7940;BME280;4015;48.888;9.226;2023-09-19T02:03:11;159736.00;;;17.88;89.79
7940;BME280;4015;48.888;9.226;2023-09-19T02:05:37;159724.44;;;17.83;89.30
7940;BME280;4015;48.888;9.226;2023-09-19T02:08:04;159706.50;;;17.76;89.84
7940;BME280;4015;48.888;9.226;2023-09-19T02:10:29;159691.03;;;17.70;89.43
7940;BME280;4015;48.888;9.226;2023-09-19T02:12:54;159656.41;;;17.56;90.24
7940;BME280;4015;48.888;9.226;2023-09-19T02:15:20;159665.38;;;17.60;90.08
7940;BME280;4015;48.888;9.226;2023-09-19T02:17:45;159673.09;;;17.63;90.00
7940;BME280;4015;48.888;9.226;2023-09-19T02:20:12;159652.56;;;17.55;90.49
7940;BME280;4015;48.888;9.226;2023-09-19T02:22:40;159637.19;;;17.48;91.11
7940;BME280;4015;48.888;9.226;2023-09-19T02:25:07;159624.34;;;17.43;90.83
7940;BME280;4015;48.888;9.226;2023-09-19T02:27:33;159621.78;;;17.42;90.40
7940;BME280;4015;48.888;9.226;2023-09-19T02:29:58;159615.34;;;17.40;90.24
7940;BME280;4015;48.888;9.226;2023-09-19T02:32:24;159602.50;;;17.35;91.03
7940;BME280;4015;48.888;9.226;2023-09-19T02:34:49;159593.56;;;17.31;91.47
7940;BME280;4015;48.888;9.226;2023-09-19T02:37:17;159597.41;;;17.33;90.50
7940;BME280;4015;48.888;9.226;2023-09-19T02:39:44;159580.72;;;17.26;90.51
7940;BME280;4015;48.888;9.226;2023-09-19T02:42:09;159556.38;;;17.16;91.63
7940;BME280;4015;48.888;9.226;2023-09-19T02:44:34;159566.63;;;17.20;90.88
7940;BME280;4015;48.888;9.226;2023-09-19T02:47:00;159573.06;;;17.23;91.34
7940;BME280;4015;48.888;9.226;2023-09-19T02:49:26;159575.59;;;17.24;90.95
7940;BME280;4015;48.888;9.226;2023-09-19T02:51:51;159587.16;;;17.29;90.41
7940;BME280;4015;48.888;9.226;2023-09-19T02:54:16;159610.22;;;17.38;91.08
7940;BME280;4015;48.888;9.226;2023-09-19T02:56:42;159624.34;;;17.43;90.31
7940;BME280;4015;48.888;9.226;2023-09-19T02:59:08;159648.69;;;17.53;90.39
7940;BME280;4015;48.888;9.226;2023-09-19T03:01:35;159651.28;;;17.54;90.69
7940;BME280;4015;48.888;9.226;2023-09-19T03:04:02;159673.09;;;17.63;89.92
7940;BME280;4015;48.888;9.226;2023-09-19T03:06:27;159671.81;;;17.62;90.19
7940;BME280;4015;48.888;9.226;2023-09-19T03:08:56;159688.47;;;17.69;90.02
7940;BME280;4015;48.888;9.226;2023-09-19T03:11:22;159684.66;;;17.67;89.63
7940;BME280;4015;48.888;9.226;2023-09-19T03:13:54;159685.94;;;17.68;89.91
7940;BME280;4015;48.888;9.226;2023-09-19T03:16:20;159698.81;;;17.73;88.70
7940;BME280;4015;48.888;9.226;2023-09-19T03:18:47;159689.75;;;17.69;88.63
7940;BME280;4015;48.888;9.226;2023-09-19T03:21:14;159667.97;;;17.61;89.63
7940;BME280;4015;48.888;9.226;2023-09-19T03:23:39;159680.75;;;17.66;88.60
7940;BME280;4015;48.888;9.226;2023-09-19T03:26:05;159667.97;;;17.61;89.72
7940;BME280;4015;48.888;9.226;2023-09-19T03:28:33;159670.53;;;17.62;90.12
7940;BME280;4015;48.888;9.226;2023-09-19T03:31:00;159653.84;;;17.55;89.47
7940;BME280;4015;48.888;9.226;2023-09-19T03:33:25;159666.69;;;17.60;90.13
7940;BME280;4015;48.888;9.226;2023-09-19T03:35:54;159661.53;;;17.58;90.54
7940;BME280;4015;48.888;9.226;2023-09-19T03:38:20;159660.25;;;17.58;92.60
7940;BME280;4015;48.888;9.226;2023-09-19T03:40:47;159643.56;;;17.51;91.75
7940;BME280;4015;48.888;9.226;2023-09-19T03:43:12;159629.47;;;17.45;91.91
7940;BME280;4015;48.888;9.226;2023-09-19T03:45:38;159635.91;;;17.48;92.66
7940;BME280;4015;48.888;9.226;2023-09-19T03:48:08;159626.91;;;17.44;92.92
7940;BME280;4015;48.888;9.226;2023-09-19T03:50:34;159601.22;;;17.34;92.59
7940;BME280;4015;48.888;9.226;2023-09-19T03:52:59;159605.13;;;17.36;93.79
7940;BME280;4015;48.888;9.226;2023-09-19T03:55:24;159606.41;;;17.36;93.18
7940;BME280;4015;48.888;9.226;2023-09-19T03:57:50;159601.22;;;17.34;94.19
7940;BME280;4015;48.888;9.226;2023-09-19T04:00:15;159570.44;;;17.22;95.18
7940;BME280;4015;48.888;9.226;2023-09-19T04:02:43;159575.59;;;17.24;94.95
7940;BME280;4015;48.888;9.226;2023-09-19T04:05:08;159553.78;;;17.15;95.64
7940;BME280;4015;48.888;9.226;2023-09-19T04:07:35;159551.22;;;17.14;96.03
7940;BME280;4015;48.888;9.226;2023-09-19T04:10:01;159537.09;;;17.09;96.76
7940;BME280;4015;48.888;9.226;2023-09-19T04:12:26;159523.00;;;17.03;97.14
7940;BME280;4015;48.888;9.226;2023-09-19T04:14:51;159532.00;;;17.07;96.77
7940;BME280;4015;48.888;9.226;2023-09-19T04:17:16;159496.09;;;16.92;96.85
7940;BME280;4015;48.888;9.226;2023-09-19T04:19:43;159507.59;;;16.97;97.48
7940;BME280;4015;48.888;9.226;2023-09-19T04:22:10;159528.16;;;17.05;97.49
7940;BME280;4015;48.888;9.226;2023-09-19T04:24:37;159524.31;;;17.04;96.82
7940;BME280;4015;48.888;9.226;2023-09-19T04:27:03;159547.38;;;17.13;95.73
7940;BME280;4015;48.888;9.226;2023-09-19T04:29:29;159549.94;;;17.14;96.32
7940;BME280;4015;48.888;9.226;2023-09-19T04:31:54;159565.34;;;17.20;95.74
7940;BME280;4015;48.888;9.226;2023-09-19T04:34:19;159580.72;;;17.26;96.35
7940;BME280;4015;48.888;9.226;2023-09-19T04:36:45;159602.50;;;17.35;97.67
7940;BME280;4015;48.888;9.226;2023-09-19T04:39:10;159617.91;;;17.41;98.45
7940;BME280;4015;48.888;9.226;2023-09-19T04:41:37;159614.06;;;17.39;96.99
7940;BME280;4015;48.888;9.226;2023-09-19T04:44:05;159626.91;;;17.44;97.44
7940;BME280;4015;48.888;9.226;2023-09-19T04:46:30;159649.97;;;17.53;97.32
7940;BME280;4015;48.888;9.226;2023-09-19T04:48:56;159661.53;;;17.58;96.68
7940;BME280;4015;48.888;9.226;2023-09-19T04:51:21;159637.19;;;17.48;97.59
7940;BME280;4015;48.888;9.226;2023-09-19T04:53:46;159635.91;;;17.48;97.54
7940;BME280;4015;48.888;9.226;2023-09-19T04:56:13;159688.47;;;17.69;95.69
7940;BME280;4015;48.888;9.226;2023-09-19T04:58:38;159669.25;;;17.61;96.42
7940;BME280;4015;48.888;9.226;2023-09-19T05:01:03;159687.22;;;17.68;97.42
7940;BME280;4015;48.888;9.226;2023-09-19T05:03:29;159634.63;;;17.47;97.24
7940;BME280;4015;48.888;9.226;2023-09-19T05:05:55;159616.63;;;17.40;96.61
7940;BME280;4015;48.888;9.226;2023-09-19T05:08:20;159641.00;;;17.50;98.65
7940;BME280;4015;48.888;9.226;2023-09-19T05:10:47;159685.94;;;17.68;97.84
7940;BME280;4015;48.888;9.226;2023-09-19T05:13:12;159689.75;;;17.69;97.75
7940;BME280;4015;48.888;9.226;2023-09-19T05:15:38;159644.84;;;17.51;98.23
7940;BME280;4015;48.888;9.226;2023-09-19T05:18:04;159692.31;;;17.70;97.65
7940;BME280;4015;48.888;9.226;2023-09-19T05:20:31;159616.63;;;17.40;98.27
7940;BME280;4015;48.888;9.226;2023-09-19T05:22:59;159651.28;;;17.54;98.85
7940;BME280;4015;48.888;9.226;2023-09-19T05:25:28;159597.41;;;17.33;98.23
7940;BME280;4015;48.888;9.226;2023-09-19T05:28:00;159628.19;;;17.45;99.20
7940;BME280;4015;48.888;9.226;2023-09-19T05:30:28;159566.63;;;17.20;100.00
7940;BME280;4015;48.888;9.226;2023-09-19T05:32:54;159483.25;;;16.87;100.00
7940;BME280;4015;48.888;9.226;2023-09-19T05:35:20;159466.59;;;16.81;100.00
7940;BME280;4015;48.888;9.226;2023-09-19T05:37:47;159452.50;;;16.75;100.00
7940;BME280;4015;48.888;9.226;2023-09-19T05:40:16;159422.94;;;16.63;100.00
7940;BME280;4015;48.888;9.226;2023-09-19T05:42:42;159444.81;;;16.72;100.00
7940;BME280;4015;48.888;9.226;2023-09-19T05:45:10;159415.28;;;16.60;99.85
7940;BME280;4015;48.888;9.226;2023-09-19T05:47:39;159415.28;;;16.60;100.00
7940;BME280;4015;48.888;9.226;2023-09-19T05:50:06;159438.34;;;16.69;100.00
7940;BME280;4015;48.888;9.226;2023-09-19T05:52:33;159419.13;;;16.62;100.00
7940;BME280;4015;48.888;9.226;2023-09-19T05:54:59;159430.66;;;16.66;100.00
7940;BME280;4015;48.888;9.226;2023-09-19T05:57:25;159425.50;;;16.64;100.00
7940;BME280;4015;48.888;9.226;2023-09-19T05:59:50;159419.13;;;16.62;100.00
7940;BME280;4015;48.888;9.226;2023-09-19T06:02:15;159422.94;;;16.63;100.00
7940;BME280;4015;48.888;9.226;2023-09-19T06:04:41;159426.78;;;16.65;100.00
7940;BME280;4015;48.888;9.226;2023-09-19T06:07:06;159433.22;;;16.67;100.00
7940;BME280;4015;48.888;9.226;2023-09-19T06:09:32;159397.34;;;16.53;100.00
7940;BME280;4015;48.888;9.226;2023-09-19T06:11:57;159380.63;;;16.46;99.24
7940;BME280;4015;48.888;9.226;2023-09-19T06:14:23;159326.81;;;16.25;97.42
7940;BME280;4015;48.888;9.226;2023-09-19T06:16:50;159305.03;;;16.16;99.50
7940;BME280;4015;48.888;9.226;2023-09-19T06:19:15;159319.13;;;16.22;99.47
7940;BME280;4015;48.888;9.226;2023-09-19T06:21:40;159320.41;;;16.23;99.32
7940;BME280;4015;48.888;9.226;2023-09-19T06:24:06;159330.63;;;16.27;98.36
7940;BME280;4015;48.888;9.226;2023-09-19T06:26:31;159334.53;;;16.28;99.19
7940;BME280;4015;48.888;9.226;2023-09-19T06:28:57;159328.06;;;16.26;98.23
7940;BME280;4015;48.888;9.226;2023-09-19T06:31:24;159365.25;;;16.40;98.77
7940;BME280;4015;48.888;9.226;2023-09-19T06:33:51;159380.63;;;16.46;98.53
7940;BME280;4015;48.888;9.226;2023-09-19T06:36:17;159421.66;;;16.63;97.84
7940;BME280;4015;48.888;9.226;2023-09-19T06:38:42;159428.06;;;16.65;97.09
7940;BME280;4015;48.888;9.226;2023-09-19T06:41:08;159435.78;;;16.68;95.83
7940;BME280;4015;48.888;9.226;2023-09-19T06:43:34;159440.94;;;16.70;95.23
7940;BME280;4015;48.888;9.226;2023-09-19T06:46:00;159479.44;;;16.86;94.12
7940;BME280;4015;48.888;9.226;2023-09-19T06:48:26;159544.81;;;17.12;94.09
7940;BME280;4015;48.888;9.226;2023-09-19T06:50:58;159660.25;;;17.58;93.91
7940;BME280;4015;48.888;9.226;2023-09-19T06:53:26;159691.03;;;17.70;91.13
7940;BME280;4015;48.888;9.226;2023-09-19T06:55:51;159753.97;;;17.95;88.46
7940;BME280;4015;48.888;9.226;2023-09-19T06:58:17;159789.88;;;18.09;90.53
7940;BME280;4015;48.888;9.226;2023-09-19T07:00:42;159869.44;;;18.41;86.97
7940;BME280;4015;48.888;9.226;2023-09-19T07:03:08;159958.06;;;18.76;87.28
7940;BME280;4015;48.888;9.226;2023-09-19T07:05:37;160042.78;;;19.09;84.77
7940;BME280;4015;48.888;9.226;2023-09-19T07:08:05;160076.16;;;19.23;84.06
7940;BME280;4015;48.888;9.226;2023-09-19T07:10:31;160154.50;;;19.54;82.64
7940;BME280;4015;48.888;9.226;2023-09-19T07:13:02;160240.63;;;19.88;81.77
7940;BME280;4015;48.888;9.226;2023-09-19T07:15:28;160222.63;;;19.81;80.84
7940;BME280;4015;48.888;9.226;2023-09-19T07:17:56;160112.16;;;19.37;85.03
7940;BME280;4015;48.888;9.226;2023-09-19T07:20:22;160031.25;;;19.05;83.41
7940;BME280;4015;48.888;9.226;2023-09-19T07:22:49;160082.59;;;19.25;83.88
7940;BME280;4015;48.888;9.226;2023-09-19T07:25:16;160000.44;;;18.93;85.46
7940;BME280;4015;48.888;9.226;2023-09-19T07:27:42;159891.28;;;18.49;86.52
7940;BME280;4015;48.888;9.226;2023-09-19T07:30:08;159890.00;;;18.49;86.95
7940;BME280;4015;48.888;9.226;2023-09-19T07:32:34;159881.00;;;18.45;86.94
7940;BME280;4015;48.888;9.226;2023-09-19T07:35:02;159916.91;;;18.59;87.03
7940;BME280;4015;48.888;9.226;2023-09-19T07:37:29;159922.09;;;18.62;87.58
7940;BME280;4015;48.888;9.226;2023-09-19T07:39:54;159933.59;;;18.66;86.58
7940;BME280;4015;48.888;9.226;2023-09-19T07:42:20;159958.06;;;18.76;85.00
7940;BME280;4015;48.888;9.226;2023-09-19T07:44:45;159956.78;;;18.75;83.22
7940;BME280;4015;48.888;9.226;2023-09-19T07:47:16;159967.06;;;18.79;85.53
7940;BME280;4015;48.888;9.226;2023-09-19T07:49:41;159978.59;;;18.84;83.31
7940;BME280;4015;48.888;9.226;2023-09-19T07:52:08;159960.63;;;18.77;83.29
7940;BME280;4015;48.888;9.226;2023-09-19T07:54:34;160040.22;;;19.08;84.36
7940;BME280;4015;48.888;9.226;2023-09-19T07:57:01;160104.41;;;19.34;81.99
7940;BME280;4015;48.888;9.226;2023-09-19T07:59:27;160017.13;;;18.99;82.45
7940;BME280;4015;48.888;9.226;2023-09-19T08:01:53;160005.56;;;18.95;83.17
7940;BME280;4015;48.888;9.226;2023-09-19T08:04:18;159997.84;;;18.92;82.86
7940;BME280;4015;48.888;9.226;2023-09-19T08:06:44;159946.50;;;18.71;82.59
7940;BME280;4015;48.888;9.226;2023-09-19T08:09:10;159959.34;;;18.76;84.17
7940;BME280;4015;48.888;9.226;2023-09-19T08:11:37;159964.47;;;18.78;84.46
7940;BME280;4015;48.888;9.226;2023-09-19T08:14:02;160010.69;;;18.97;82.78
7940;BME280;4015;48.888;9.226;2023-09-19T08:16:27;160060.75;;;19.17;84.26
7940;BME280;4015;48.888;9.226;2023-09-19T08:18:53;160114.72;;;19.38;81.25
7940;BME280;4015;48.888;9.226;2023-09-19T08:21:21;160108.25;;;19.35;79.75
7940;BME280;4015;48.888;9.226;2023-09-19T08:23:47;160176.41;;;19.62;82.16
7940;BME280;4015;48.888;9.226;2023-09-19T08:26:12;160146.81;;;19.51;78.42
7940;BME280;4015;48.888;9.226;2023-09-19T08:28:37;160213.63;;;19.77;78.99
7940;BME280;4015;48.888;9.226;2023-09-19T08:31:06;160302.28;;;20.12;78.63
7940;BME280;4015;48.888;9.226;2023-09-19T08:33:34;160272.72;;;20.01;76.30
7940;BME280;4015;48.888;9.226;2023-09-19T08:36:01;160290.69;;;20.08;78.24
7940;BME280;4015;48.888;9.226;2023-09-19T08:38:26;160306.13;;;20.14;77.39
7940;BME280;4015;48.888;9.226;2023-09-19T08:40:58;160225.19;;;19.82;75.44
7940;BME280;4015;48.888;9.226;2023-09-19T08:43:27;160265.00;;;19.98;76.59
7940;BME280;4015;48.888;9.226;2023-09-19T08:46:19;160289.41;;;20.07;76.26
7940;BME280;4015;48.888;9.226;2023-09-19T08:48:50;160345.91;;;20.30;76.67
7940;BME280;4015;48.888;9.226;2023-09-19T08:51:41;160407.66;;;20.54;76.94
7940;BME280;4015;48.888;9.226;2023-09-19T08:54:29;160414.09;;;20.57;74.41
7940;BME280;4015;48.888;9.226;2023-09-19T08:57:00;160414.09;;;20.57;76.16
7940;BME280;4015;48.888;9.226;2023-09-19T08:59:28;160444.94;;;20.69;74.96
7940;BME280;4015;48.888;9.226;2023-09-19T09:01:54;160429.53;;;20.63;74.21
7940;BME280;4015;48.888;9.226;2023-09-19T09:04:22;160434.63;;;20.65;73.50
7940;BME280;4015;48.888;9.226;2023-09-19T09:06:49;160504.03;;;20.92;71.65
7940;BME280;4015;48.888;9.226;2023-09-19T09:09:18;160515.59;;;20.97;71.59
7940;BME280;4015;48.888;9.226;2023-09-19T09:11:45;160511.75;;;20.95;72.21
7940;BME280;4015;48.888;9.226;2023-09-19T09:14:11;160547.72;;;21.10;71.13
7940;BME280;4015;48.888;9.226;2023-09-19T09:16:37;160592.72;;;21.27;72.17
7940;BME280;4015;48.888;9.226;2023-09-19T09:19:03;160572.19;;;21.19;69.35
7940;BME280;4015;48.888;9.226;2023-09-19T09:21:29;160541.31;;;21.07;71.22
7940;BME280;4015;48.888;9.226;2023-09-19T09:23:54;160491.22;;;20.87;67.06
7940;BME280;4015;48.888;9.226;2023-09-19T09:29:04;160480.91;;;20.83;67.56
7940;BME280;4015;48.888;9.226;2023-09-19T09:31:29;160479.63;;;20.83;68.23
7940;BME280;4015;48.888;9.226;2023-09-19T09:33:55;160388.38;;;20.46;68.46
7940;BME280;4015;48.888;9.226;2023-09-19T09:36:38;160351.09;;;20.32;67.75
7940;BME280;4015;48.888;9.226;2023-09-19T09:39:04;160434.63;;;20.65;66.95
7940;BME280;4015;48.888;9.226;2023-09-19T09:41:41;160534.88;;;21.05;67.80
7940;BME280;4015;48.888;9.226;2023-09-19T09:44:16;160609.47;;;21.34;66.28
7940;BME280;4015;48.888;9.226;2023-09-19T09:46:47;160660.88;;;21.54;64.93
7940;BME280;4015;48.888;9.226;2023-09-19T09:49:35;160712.34;;;21.75;62.91
7940;BME280;4015;48.888;9.226;2023-09-19T09:52:04;160785.63;;;22.04;64.26
7940;BME280;4015;48.888;9.226;2023-09-19T09:54:34;160901.41;;;22.50;63.40
7940;BME280;4015;48.888;9.226;2023-09-19T09:57:08;160936.16;;;22.64;61.16
7940;BME280;4015;48.888;9.226;2023-09-19T09:59:52;160982.47;;;22.82;62.88
7940;BME280;4015;48.888;9.226;2023-09-19T10:02:28;161022.38;;;22.98;59.06
7940;BME280;4015;48.888;9.226;2023-09-19T10:04:58;161049.41;;;23.08;58.28
7940;BME280;4015;48.888;9.226;2023-09-19T10:07:29;161156.19;;;23.51;57.30
7940;BME280;4015;48.888;9.226;2023-09-19T10:09:58;161151.06;;;23.49;57.02
7940;BME280;4015;48.888;9.226;2023-09-19T10:12:31;161015.97;;;22.95;56.84
7940;BME280;4015;48.888;9.226;2023-09-19T10:14:59;161232.16;;;23.81;56.66
7940;BME280;4015;48.888;9.226;2023-09-19T10:17:26;161447.22;;;24.66;55.74
7940;BME280;4015;48.888;9.226;2023-09-19T10:19:56;161661.06;;;25.50;55.16
7940;BME280;4015;48.888;9.226;2023-09-19T10:22:28;161953.66;;;26.66;51.55
7940;BME280;4015;48.888;9.226;2023-09-19T10:24:57;162007.78;;;26.87;49.15
7940;BME280;4015;48.888;9.226;2023-09-19T10:27:26;162047.78;;;27.03;47.72
7940;BME280;4015;48.888;9.226;2023-09-19T10:29:52;162108.38;;;27.27;47.18
7940;BME280;4015;48.888;9.226;2023-09-19T10:32:22;162256.72;;;27.86;47.74
7940;BME280;4015;48.888;9.226;2023-09-19T10:34:49;162237.34;;;27.78;45.41
7940;BME280;4015;48.888;9.226;2023-09-19T10:37:16;162508.31;;;28.85;46.36
7940;BME280;4015;48.888;9.226;2023-09-19T10:39:46;162392.19;;;28.39;45.06
7940;BME280;4015;48.888;9.226;2023-09-19T10:42:16;162352.16;;;28.23;45.88
7940;BME280;4015;48.888;9.226;2023-09-19T10:44:45;162682.56;;;29.54;46.10
7940;BME280;4015;48.888;9.226;2023-09-19T10:47:11;163031.22;;;30.92;44.31
7940;BME280;4015;48.888;9.226;2023-09-19T10:49:46;162909.81;;;30.44;42.10
7940;BME280;4015;48.888;9.226;2023-09-19T10:52:14;162969.19;;;30.67;41.82
7940;BME280;4015;48.888;9.226;2023-09-19T10:54:46;162550.91;;;29.02;44.81
7940;BME280;4015;48.888;9.226;2023-09-19T10:57:21;162470.88;;;28.70;44.23
7940;BME280;4015;48.888;9.226;2023-09-19T11:00:08;162256.72;;;27.86;46.76
7940;BME280;4015;48.888;9.226;2023-09-19T11:03:16;162727.75;;;29.72;44.28
7940;BME280;4015;48.888;9.226;2023-09-19T11:06:00;162960.16;;;30.63;43.20
7940;BME280;4015;48.888;9.226;2023-09-19T11:08:26;162714.81;;;29.67;42.32
7940;BME280;4015;48.888;9.226;2023-09-19T11:10:52;162241.25;;;27.80;47.37
7940;BME280;4015;48.888;9.226;2023-09-19T11:13:28;161835.03;;;26.19;50.82
7940;BME280;4015;48.888;9.226;2023-09-19T11:26:45;161166.50;;;23.55;56.46
7940;BME280;4015;48.888;9.226;2023-09-19T11:29:29;161445.94;;;24.65;53.73
7940;BME280;4015;48.888;9.226;2023-09-19T11:31:56;161577.34;;;25.17;53.06
7940;BME280;4015;48.888;9.226;2023-09-19T11:42:44;162496.69;;;28.81;45.60
7940;BME280;4015;48.888;9.226;2023-09-19T11:48:23;162833.66;;;30.14;44.62
7940;BME280;4015;48.888;9.226;2023-09-19T11:50:50;162361.16;;;28.27;46.40
7940;BME280;4015;48.888;9.226;2023-09-19T11:53:16;162632.19;;;29.34;45.39
7940;BME280;4015;48.888;9.226;2023-09-19T11:55:45;162793.56;;;29.98;43.62
7940;BME280;4015;48.888;9.226;2023-09-19T11:58:12;162696.75;;;29.60;44.28
7940;BME280;4015;48.888;9.226;2023-09-19T12:00:40;162815.53;;;30.06;42.47
7940;BME280;4015;48.888;9.226;2023-09-19T12:03:10;163062.19;;;31.04;41.11
7940;BME280;4015;48.888;9.226;2023-09-19T12:05:36;162917.53;;;30.47;41.02
7940;BME280;4015;48.888;9.226;2023-09-19T12:08:05;163103.56;;;31.20;41.86
7940;BME280;4015;48.888;9.226;2023-09-19T12:10:47;163219.81;;;31.66;40.58
7940;BME280;4015;48.888;9.226;2023-09-19T12:13:18;163398.19;;;32.36;38.54
7940;BME280;4015;48.888;9.226;2023-09-19T12:15:44;163536.53;;;32.91;38.69
7940;BME280;4015;48.888;9.226;2023-09-19T12:18:34;163433.13;;;32.50;37.79
7940;BME280;4015;48.888;9.226;2023-09-19T12:21:00;163240.47;;;31.74;38.95
7940;BME280;4015;48.888;9.226;2023-09-19T12:23:30;163480.94;;;32.69;38.87
7940;BME280;4015;48.888;9.226;2023-09-19T12:25:55;163231.47;;;31.71;38.30
7940;BME280;4015;48.888;9.226;2023-09-19T12:28:25;163222.41;;;31.67;38.28
7940;BME280;4015;48.888;9.226;2023-09-19T12:30:52;162978.28;;;30.71;38.99
7940;BME280;4015;48.888;9.226;2023-09-19T12:33:20;163088.03;;;31.14;39.45
7940;BME280;4015;48.888;9.226;2023-09-19T12:35:46;163395.63;;;32.35;38.73
7940;BME280;4015;48.888;9.226;2023-09-19T12:38:27;163877.88;;;34.25;37.16
7940;BME280;4015;48.888;9.226;2023-09-19T12:40:55;163955.50;;;34.56;35.62
7940;BME280;4015;48.888;9.226;2023-09-19T12:43:22;163870.13;;;34.22;36.00
7940;BME280;4015;48.888;9.226;2023-09-19T12:45:48;163989.13;;;34.69;34.78
7940;BME280;4015;48.888;9.226;2023-09-19T12:48:26;163871.41;;;34.23;34.40
7940;BME280;4015;48.888;9.226;2023-09-19T12:53:42;164307.47;;;35.94;34.47
7940;BME280;4015;48.888;9.226;2023-09-19T12:56:10;163956.78;;;34.56;35.18
7940;BME280;4015;48.888;9.226;2023-09-19T13:01:19;163527.44;;;32.87;36.31
7940;BME280;4015;48.888;9.226;2023-09-19T13:03:45;163857.19;;;34.17;36.52
7940;BME280;4015;48.888;9.226;2023-09-19T13:06:11;163954.22;;;34.55;34.80
7940;BME280;4015;48.888;9.226;2023-09-19T13:08:38;163996.91;;;34.72;34.73
7940;BME280;4015;48.888;9.226;2023-09-19T13:11:13;164205.25;;;35.54;32.52
7940;BME280;4015;48.888;9.226;2023-09-19T13:13:42;164126.28;;;35.23;33.08
7940;BME280;4015;48.888;9.226;2023-09-19T13:16:09;164103.03;;;35.14;34.29
7940;BME280;4015;48.888;9.226;2023-09-19T13:18:45;163866.25;;;34.21;34.87
7940;BME280;4015;48.888;9.226;2023-09-19T13:21:13;164103.03;;;35.14;32.39
7940;BME280;4015;48.888;9.226;2023-09-19T13:23:50;164262.19;;;35.77;33.00
7940;BME280;4015;48.888;9.226;2023-09-19T13:26:15;164224.63;;;35.62;34.02
7940;BME280;4015;48.888;9.226;2023-09-19T13:28:41;164330.78;;;36.04;32.82
7940;BME280;4015;48.888;9.226;2023-09-19T13:31:06;164238.88;;;35.67;33.23
7940;BME280;4015;48.888;9.226;2023-09-19T13:33:33;163597.28;;;33.15;36.38
7940;BME280;4015;48.888;9.226;2023-09-19T13:35:58;163129.44;;;31.30;39.23
7940;BME280;4015;48.888;9.226;2023-09-19T13:38:24;163555.91;;;32.98;38.86
7940;BME280;4015;48.888;9.226;2023-09-19T13:40:49;163874.00;;;34.24;35.87
7940;BME280;4015;48.888;9.226;2023-09-19T13:43:15;163062.19;;;31.04;37.62
7940;BME280;4015;48.888;9.226;2023-09-19T13:45:41;162938.22;;;30.55;40.09
7940;BME280;4015;48.888;9.226;2023-09-19T13:48:09;162882.69;;;30.33;41.10
7940;BME280;4015;48.888;9.226;2023-09-19T13:50:37;163311.59;;;32.02;37.19
7940;BME280;4015;48.888;9.226;2023-09-19T13:53:10;163143.59;;;31.36;37.97
7940;BME280;4015;48.888;9.226;2023-09-19T13:55:35;162754.84;;;29.82;40.13